Terminal Aerodrome Forecast
Issued by NWS Sterling, VA

Current Version | Previous Version | Graphics & Text | Print | Product List | Glossary On
Versions: 1 2 3 4 5 6 7 8 9 10 11 12
230
FTUS41 KLWX 231123
TAFMRB
TAF
KMRB 231123Z 2312/2412 00000KT P6SM BKN070
     FM231400 15004KT P6SM SCT070
     FM240700 VRB03KT 5SM BR FEW250=

USA.gov is the U.S. government's official web portal to all federal, state and local government web resources and services.